| time (UTC) | temp F | wind direction | speed MPH | gust MPH | rain 1hr in | rain 24hr in | rain mn in | humidity % | barometer mb |
| 20260502233857 | 68 | 241 | 6.0 | 11.0 | 0.00 | 0.00 | 0.00 | 25 | 1014.9 |
| 20260502233355 | 69 | 243 | 7.0 | 11.0 | 0.00 | 0.00 | 0.00 | 26 | 1015.0 |
| 20260502232855 | 69 | 248 | 6.0 | 11.0 | 0.00 | 0.00 | 0.00 | 27 | 1015.1 |
| 20260502232355 | 69 | 247 | 4.0 | 12.0 | 0.00 | 0.00 | 0.00 | 27 | 1015.2 |
| 20260502231356 | 70 | 210 | 7.0 | 11.0 | 0.00 | 0.00 | 0.00 | 28 | 1015.3 |
| 20260502230855 | 70 | 225 | 3.0 | 11.0 | 0.00 | 0.00 | 0.00 | 27 | 1015.2 |
| 20260502230355 | 70 | 212 | 2.0 | 8.0 | 0.00 | 0.00 | 0.00 | 26 | 1015.4 |
| 20260502225855 | 70 | 325 | 2.0 | 8.0 | 0.00 | 0.00 | 0.00 | 30 | 1015.4 |
| 20260502225355 | 69 | 336 | 2.0 | 6.0 | 0.00 | 0.00 | 0.00 | 30 | 1015.5 |
| 20260502224854 | 69 | 232 | 2.0 | 8.0 | 0.00 | 0.00 | 0.00 | 26 | 1015.5 |
| 20260502224354 | 69 | 234 | 5.0 | 8.0 | 0.00 | 0.00 | 0.00 | 29 | 1015.7 |
| 20260502223349 | 69 | 236 | 5.0 | 14.0 | 0.00 | 0.00 | 0.00 | 28 | 1015.7 |
| 20260502222843 | 69 | 221 | 7.0 | 14.0 | 0.00 | 0.00 | 0.00 | 29 | 1015.7 |
| 20260502221836 | 69 | 226 | 6.0 | 10.0 | 0.00 | 0.00 | 0.00 | 29 | 1016.0 |
| 20260502221332 | 69 | 182 | 4.0 | 11.0 | 0.00 | 0.00 | 0.00 | 28 | 1016.1 |
| 20260502220829 | 69 | 225 | 6.0 | 14.0 | 0.00 | 0.00 | 0.00 | 29 | 1016.2 |
| 20260502220325 | 69 | 221 | 10.0 | 14.0 | 0.00 | 0.00 | 0.00 | 28 | 1016.3 |
| 20260502215823 | 69 | 232 | 5.0 | 13.0 | 0.00 | 0.00 | 0.00 | 31 | 1016.3 |
| 20260502215321 | 69 | 226 | 5.0 | 13.0 | 0.00 | 0.00 | 0.00 | 29 | 1016.3 |
| 20260502214819 | 69 | 265 | 6.0 | 13.0 | 0.00 | 0.00 | 0.00 | 30 | 1016.5 |
| 20260502214319 | 68 | 259 | 7.0 | 13.0 | 0.00 | 0.00 | 0.00 | 29 | 1016.7 |
| 20260502213818 | 68 | 225 | 2.0 | 10.0 | 0.00 | 0.00 | 0.00 | 31 | 1016.6 |
| 20260502213319 | 68 | 238 | 5.0 | 10.0 | 0.00 | 0.00 | 0.00 | 30 | 1016.8 |
| 20260502212818 | 68 | 268 | 7.0 | 11.0 | 0.00 | 0.00 | 0.00 | 31 | 1016.9 |
| 20260502211315 | 67 | 218 | 3.0 | 10.0 | 0.00 | 0.00 | 0.00 | 30 | 1017.0 |
| 20260502210815 | 67 | 201 | 4.0 | 15.0 | 0.00 | 0.00 | 0.00 | 28 | 1017.1 |
| 20260502210313 | 67 | 250 | 6.0 | 15.0 | 0.00 | 0.00 | 0.00 | 30 | 1017.2 |
| 20260502205814 | 68 | 216 | 9.0 | 14.0 | 0.00 | 0.00 | 0.00 | 31 | 1017.2 |
| 20260502205314 | 68 | 225 | 4.0 | 9.0 | 0.00 | 0.00 | 0.00 | 31 | 1017.4 |
| 20260502204813 | 68 | 245 | 1.0 | 8.0 | 0.00 | 0.00 | 0.00 | 32 | 1017.5 |
| 20260502204313 | 67 | 350 | 4.0 | 14.0 | 0.00 | 0.00 | 0.00 | 32 | 1017.5 |
| 20260502203813 | 67 | 229 | 6.0 | 14.0 | 0.00 | 0.00 | 0.00 | 32 | 1017.6 |
| 20260502203314 | 67 | 219 | 6.0 | 14.0 | 0.00 | 0.00 | 0.00 | 31 | 1017.7 |
| 20260502202811 | 67 | 254 | 7.0 | 14.0 | 0.00 | 0.00 | 0.00 | 33 | 1017.8 |
| 20260502202312 | 66 | 275 | 6.0 | 13.0 | 0.00 | 0.00 | 0.00 | 31 | 1017.8 |
| 20260502201811 | 66 | 137 | 2.0 | 10.0 | 0.00 | 0.00 | 0.00 | 31 | 1017.9 |
| 20260502200810 | 68 | 221 | 5.0 | 11.0 | 0.00 | 0.00 | 0.00 | 31 | 1018.1 |
| 20260502200309 | 68 | 244 | 5.0 | 8.0 | 0.00 | 0.00 | 0.00 | 32 | 1018.1 |
| 20260502195810 | 68 | 265 | 3.0 | 7.0 | 0.00 | 0.00 | 0.00 | 33 | 1018.2 |
| 20260502194809 | 67 | 279 | 4.0 | 10.0 | 0.00 | 0.00 | 0.00 | 31 | 1018.5 |
| 20260502194309 | 67 | 284 | 4.0 | 10.0 | 0.00 | 0.00 | 0.00 | 40 | 1018.5 |
| 20260502193807 | 66 | 250 | 3.0 | 10.0 | 0.00 | 0.00 | 0.00 | 38 | 1018.6 |
| 20260502193308 | 66 | 279 | 4.0 | 10.0 | 0.00 | 0.00 | 0.00 | 34 | 1018.8 |
| 20260502192807 | 65 | 221 | 5.0 | 11.0 | 0.00 | 0.00 | 0.00 | 31 | 1018.9 |
| 20260502191808 | 65 | 250 | 7.0 | 13.0 | 0.00 | 0.00 | 0.00 | 37 | 1018.9 |
| 20260502191305 | 65 | 243 | 7.0 | 13.0 | 0.00 | 0.00 | 0.00 | 34 | 1019.0 |
| 20260502190807 | 66 | 230 | 5.0 | 10.0 | 0.00 | 0.00 | 0.00 | 35 | 1019.1 |
| 20260502190305 | 65 | 275 | 4.0 | 10.0 | 0.00 | 0.00 | 0.00 | 38 | 1019.2 |
| 20260502185305 | 65 | 291 | 5.0 | 13.0 | 0.00 | 0.00 | 0.00 | 41 | 1019.2 |
| 20260502184804 | 65 | 254 | 4.0 | 14.0 | 0.00 | 0.00 | 0.00 | 36 | 1019.3 |
| 20260502183803 | 64 | 9 | 4.0 | 14.0 | 0.00 | 0.00 | 0.00 | 37 | 1019.8 |
| 20260502183304 | 64 | 238 | 5.0 | 14.0 | 0.00 | 0.00 | 0.00 | 35 | 1019.8 |
| 20260502182803 | 65 | 236 | 3.0 | 11.0 | 0.00 | 0.00 | 0.00 | 35 | 1020.0 |
| 20260502182304 | 65 | 272 | 5.0 | 15.0 | 0.00 | 0.00 | 0.00 | 40 | 1020.0 |
| 20260502181802 | 65 | 265 | 7.0 | 15.0 | 0.00 | 0.00 | 0.00 | 39 | 1020.1 |
| 20260502181301 | 64 | 286 | 3.0 | 11.0 | 0.00 | 0.00 | 0.00 | 40 | 1020.0 |
| 20260502180801 | 63 | 243 | 2.0 | 8.0 | 0.00 | 0.00 | 0.00 | 39 | 1020.2 |
| 20260502180300 | 63 | 178 | 3.0 | 9.0 | 0.00 | 0.00 | 0.00 | 37 | 1020.2 |
| 20260502170252 | 60 | 257 | 3.0 | 11.0 | 0.00 | 0.00 | 0.00 | 44 | 1020.9 |
| 20260502164251 | 61 | 257 | 5.0 | 12.0 | 0.00 | 0.00 | 0.00 | 39 | 1020.9 |
| 20260502163750 | 61 | 250 | 4.0 | 12.0 | 0.00 | 0.00 | 0.00 | 41 | 1021.1 |
| 20260502163250 | 61 | 236 | 2.0 | 11.0 | 0.00 | 0.00 | 0.00 | 42 | 1021.0 |
| 20260502162750 | 60 | 279 | 3.0 | 8.0 | 0.00 | 0.00 | 0.00 | 42 | 1021.1 |
| 20260502162249 | 60 | 245 | 4.0 | 12.0 | 0.00 | 0.00 | 0.00 | 41 | 1021.2 |
| 20260502161749 | 59 | 291 | 3.0 | 12.0 | 0.00 | 0.00 | 0.00 | 41 | 1021.2 |
| 20260502161249 | 59 | 234 | 5.0 | 13.0 | 0.00 | 0.00 | 0.00 | 38 | 1021.3 |
| 20260502160751 | 60 | 250 | 5.0 | 13.0 | 0.00 | 0.00 | 0.00 | 44 | 1021.4 |
| 20260502152246 | 55 | 294 | 3.0 | 10.0 | 0.00 | 0.00 | 0.00 | 50 | 1021.6 |
| 20260502151746 | 55 | 291 | 3.0 | 7.0 | 0.00 | 0.00 | 0.00 | 49 | 1021.6 |
| 20260502151246 | 55 | 225 | 1.0 | 7.0 | 0.00 | 0.00 | 0.00 | 52 | 1021.6 |
| 20260502150246 | 53 | 208 | 2.0 | 6.0 | 0.00 | 0.00 | 0.00 | 55 | 1021.5 |
| 20260502130727 | 33 | 325 | 1.0 | 2.0 | 0.00 | 0.00 | 0.00 | 90 | 1021.8 |
| 20260502130227 | 32 | 51 | 1.0 | 2.0 | 0.00 | 0.00 | 0.00 | 90 | 1021.8 |
| 20260502123724 | 30 | 238 | 0.0 | 1.0 | 0.00 | 0.00 | 0.00 | 89 | 1021.7 |
| 20260502123226 | 30 | 238 | 0.0 | 1.0 | 0.00 | 0.00 | 0.00 | 89 | 1021.6 |
| 20260502122724 | 30 | 265 | 0.0 | 1.0 | 0.00 | 0.00 | 0.00 | 89 | 1021.5 |
| 20260502122219 | 30 | 51 | 0.0 | 1.0 | 0.00 | 0.00 | 0.00 | 89 | 1021.7 |
| 20260502121720 | 29 | 9 | 0.0 | 1.0 | 0.00 | 0.00 | 0.00 | 89 | 1021.6 |
| 20260502121219 | 29 | 153 | 0.0 | 1.0 | 0.00 | 0.00 | 0.00 | 89 | 1021.6 |
| 20260502120718 | 29 | 126 | 1.0 | 1.0 | 0.00 | 0.00 | 0.00 | 89 | 1021.6 |
| 20260502120218 | 29 | 51 | 0.0 | 1.0 | 0.00 | 0.00 | 0.00 | 89 | 1021.6 |
| 20260502115717 | 29 | 265 | 0.0 | 1.0 | 0.00 | 0.00 | 0.00 | 89 | 1021.5 |
| 20260502115217 | 29 | 111 | 0.0 | 1.0 | 0.00 | 0.00 | 0.00 | 89 | 1021.5 |
| 20260502114717 | 29 | 205 | 0.0 | 2.0 | 0.00 | 0.00 | 0.00 | 88 | 1021.5 |
| 20260502114216 | 29 | 215 | 1.0 | 2.0 | 0.00 | 0.00 | 0.00 | 88 | 1021.5 |
| 20260502113716 | 29 | 137 | 0.0 | 1.0 | 0.00 | 0.00 | 0.00 | 88 | 1021.4 |
| 20260502113216 | 29 | 9 | 0.0 | 1.0 | 0.00 | 0.00 | 0.00 | 88 | 1021.4 |
| 20260502112715 | 29 | 325 | 0.0 | 1.0 | 0.00 | 0.00 | 0.00 | 88 | 1021.5 |
| 20260502111215 | 29 | 34 | 0.0 | 1.0 | 0.00 | 0.00 | 0.00 | 88 | 1021.4 |
| 20260502110214 | 29 | 51 | 0.0 | 1.0 | 0.00 | 0.00 | 0.00 | 88 | 1021.4 |
| 20260502105714 | 29 | 137 | 0.0 | 1.0 | 0.00 | 0.00 | 0.00 | 88 | 1021.4 |
| 20260502104709 | 29 | 221 | 0.0 | 1.0 | 0.00 | 0.00 | 0.00 | 88 | 1021.4 |
| 20260502104207 | 29 | 51 | 1.0 | 1.0 | 0.00 | 0.00 | 0.00 | 87 | 1021.4 |
| 20260502103703 | 29 | 9 | 1.0 | 1.0 | 0.00 | 0.00 | 0.00 | 87 | 1021.4 |
| 20260502103204 | 29 | 51 | 0.0 | 1.0 | 0.00 | 0.00 | 0.00 | 87 | 1021.4 |
| 20260502102203 | 29 | 26 | 0.0 | 1.0 | 0.00 | 0.00 | 0.00 | 87 | 1021.3 |
| 20260502101703 | 29 | 9 | 0.0 | 1.0 | 0.00 | 0.00 | 0.00 | 87 | 1021.3 |
| 20260502100702 | 30 | 325 | 0.0 | 1.0 | 0.00 | 0.00 | 0.00 | 87 | 1021.3 |
| 20260502100202 | 30 | 26 | 0.0 | 1.0 | 0.00 | 0.00 | 0.00 | 87 | 1021.2 |
| 20260502091150 | 31 | 93 | 0.0 | 1.0 | 0.00 | 0.00 | 0.00 | 86 | 1021.2 |
| 20260502090643 | 31 | 93 | 0.0 | 1.0 | 0.00 | 0.00 | 0.00 | 86 | 1021.0 |
| 20260502090143 | 31 | 34 | 0.0 | 1.0 | 0.00 | 0.00 | 0.00 | 86 | 1021.0 |
| 20260502071059 | 33 | 309 | 0.0 | 1.0 | 0.00 | 0.00 | 0.00 | 82 | 1021.2 |
| 20260502070559 | 33 | 51 | 0.0 | 1.0 | 0.00 | 0.00 | 0.00 | 82 | 1021.1 |
| 20260502070059 | 33 | 325 | 0.0 | 1.0 | 0.00 | 0.00 | 0.00 | 82 | 1021.1 |
| 20260502065057 | 34 | 9 | 0.0 | 1.0 | 0.00 | 0.00 | 0.00 | 82 | 1021.0 |
| 20260502063557 | 34 | 265 | 0.0 | 1.0 | 0.00 | 0.00 | 0.00 | 81 | 1021.1 |
| 20260502063057 | 34 | 126 | 1.0 | 1.0 | 0.00 | 0.00 | 0.00 | 81 | 1021.1 |
| 20260502062556 | 34 | 137 | 1.0 | 1.0 | 0.00 | 0.00 | 0.00 | 80 | 1021.1 |
| 20260502062056 | 34 | 51 | 0.0 | 1.0 | 0.00 | 0.00 | 0.00 | 80 | 1021.0 |
| 20260502061556 | 34 | 93 | 0.0 | 1.0 | 0.00 | 0.00 | 0.00 | 79 | 1021.0 |
| 20260502060555 | 35 | 137 | 0.0 | 2.0 | 0.00 | 0.00 | 0.00 | 79 | 1020.9 |
| 20260502060055 | 35 | 51 | 0.0 | 2.0 | 0.00 | 0.00 | 0.00 | 79 | 1020.9 |
| 20260502054556 | 36 | 309 | 0.0 | 1.0 | 0.00 | 0.00 | 0.00 | 78 | 1020.8 |
| 20260502054054 | 36 | 137 | 0.0 | 1.0 | 0.00 | 0.00 | 0.00 | 78 | 1020.8 |
| 20260502053555 | 36 | 162 | 0.0 | 1.0 | 0.00 | 0.00 | 0.00 | 78 | 1020.7 |
| 20260502053049 | 36 | 137 | 0.0 | 1.0 | 0.00 | 0.00 | 0.00 | 77 | 1020.7 |
| 20260502052544 | 36 | 309 | 0.0 | 1.0 | 0.00 | 0.00 | 0.00 | 77 | 1020.8 |
| 20260502052043 | 36 | 51 | 1.0 | 1.0 | 0.00 | 0.00 | 0.00 | 76 | 1020.8 |
| 20260502051544 | 37 | 162 | 0.0 | 1.0 | 0.00 | 0.00 | 0.00 | 76 | 1020.7 |
| 20260502050543 | 37 | 137 | 0.0 | 1.0 | 0.00 | 0.00 | 0.00 | 75 | 1020.6 |
| 20260502050043 | 37 | 137 | 0.0 | 1.0 | 0.00 | 0.00 | 0.00 | 75 | 1020.6 |
| 20260502045042 | 38 | 9 | 0.0 | 1.0 | 0.00 | 0.00 | 0.00 | 74 | 1020.5 |
| 20260502044541 | 38 | 137 | 0.0 | 1.0 | 0.00 | 0.00 | 0.00 | 73 | 1020.6 |
| 20260502043536 | 38 | 153 | 0.0 | 1.0 | 0.00 | 0.00 | 0.00 | 71 | 1020.5 |
| 20260502043036 | 39 | 153 | 0.0 | 1.0 | 0.00 | 0.00 | 0.00 | 70 | 1020.4 |
| 20260502042536 | 39 | 162 | 1.0 | 1.0 | 0.00 | 0.00 | 0.00 | 70 | 1020.3 |
| 20260502041536 | 39 | 162 | 0.0 | 1.0 | 0.00 | 0.00 | 0.00 | 68 | 1020.4 |
| 20260502041035 | 40 | 137 | 0.0 | 1.0 | 0.00 | 0.00 | 0.00 | 67 | 1020.4 |
| 20260502040030 | 40 | 93 | 0.0 | 1.0 | 0.00 | 0.00 | 0.00 | 67 | 1020.4 |
| 20260502035519 | 41 | 137 | 1.0 | 1.0 | 0.00 | 0.00 | 0.00 | 66 | 1020.4 |
| 20260502035019 | 41 | 265 | 0.0 | 2.0 | 0.00 | 0.00 | 0.00 | 66 | 1020.3 |
| 20260502034513 | 42 | 265 | 0.0 | 2.0 | 0.00 | 0.00 | 0.00 | 65 | 1020.4 |
| 20260502034014 | 42 | 287 | 0.0 | 2.0 | 0.00 | 0.00 | 0.00 | 64 | 1020.3 |
| 20260502033513 | 42 | 291 | 0.0 | 1.0 | 0.00 | 0.00 | 0.00 | 63 | 1020.3 |
| 20260502033013 | 43 | 325 | 0.0 | 2.0 | 0.00 | 0.00 | 0.00 | 63 | 1020.4 |
| 20260502032513 | 44 | 309 | 1.0 | 2.0 | 0.00 | 0.00 | 0.00 | 62 | 1020.3 |
| 20260502032012 | 44 | 51 | 0.0 | 2.0 | 0.00 | 0.00 | 0.00 | 60 | 1020.3 |
| 20260502031512 | 45 | 291 | 0.0 | 1.0 | 0.00 | 0.00 | 0.00 | 57 | 1020.2 |
| 20260502031001 | 46 | 205 | 0.0 | 1.0 | 0.00 | 0.00 | 0.00 | 52 | 1020.2 |
| 20260502030501 | 46 | 212 | 1.0 | 1.0 | 0.00 | 0.00 | 0.00 | 50 | 1020.2 |
| 20260502030002 | 47 | 238 | 0.0 | 1.0 | 0.00 | 0.00 | 0.00 | 48 | 1020.1 |
| 20260502025501 | 47 | 51 | 0.0 | 2.0 | 0.00 | 0.00 | 0.00 | 47 | 1020.1 |
| 20260502025001 | 48 | 119 | 1.0 | 2.0 | 0.00 | 0.00 | 0.00 | 46 | 1020.0 |
| 20260502024451 | 48 | 342 | 1.0 | 2.0 | 0.00 | 0.00 | 0.00 | 44 | 1019.9 |
| 20260502022949 | 48 | 338 | 1.0 | 2.0 | 0.00 | 0.00 | 0.00 | 44 | 1019.8 |
| 20260502022450 | 48 | 19 | 1.0 | 3.0 | 0.00 | 0.00 | 0.00 | 44 | 1019.7 |
| 20260502021949 | 48 | 44 | 2.0 | 3.0 | 0.00 | 0.00 | 0.00 | 44 | 1019.7 |
| 20260502021449 | 49 | 334 | 1.0 | 3.0 | 0.00 | 0.00 | 0.00 | 44 | 1019.6 |
| 20260502020950 | 49 | 9 | 1.0 | 3.0 | 0.00 | 0.00 | 0.00 | 44 | 1019.6 |
| 20260502020448 | 49 | 30 | 2.0 | 3.0 | 0.00 | 0.00 | 0.00 | 43 | 1019.6 |
| 20260502014447 | 50 | 325 | 2.0 | 4.0 | 0.00 | 0.00 | 0.00 | 42 | 1019.3 |
| 20260502013947 | 50 | 26 | 2.0 | 4.0 | 0.00 | 0.00 | 0.00 | 42 | 1019.2 |
| 20260502012946 | 50 | 330 | 2.0 | 7.0 | 0.00 | 0.00 | 0.00 | 42 | 1019.1 |
| 20260502011946 | 51 | 19 | 2.0 | 6.0 | 0.00 | 0.00 | 0.00 | 43 | 1019.0 |
| 20260502011445 | 51 | 43 | 2.0 | 6.0 | 0.00 | 0.00 | 0.00 | 44 | 1018.9 |
| 20260502010445 | 51 | 15 | 3.0 | 10.0 | 0.00 | 0.00 | 0.00 | 43 | 1018.8 |
| 20260502005445 | 52 | 347 | 4.0 | 12.0 | 0.00 | 0.00 | 0.00 | 43 | 1018.8 |
| 20260502004943 | 53 | 347 | 5.0 | 12.0 | 0.00 | 0.00 | 0.00 | 41 | 1018.8 |
| 20260502004443 | 53 | 329 | 5.0 | 11.0 | 0.00 | 0.00 | 0.00 | 41 | 1018.7 |
| 20260502003942 | 53 | 9 | 6.0 | 12.0 | 0.00 | 0.00 | 0.00 | 42 | 1018.6 |
| 20260502003442 | 53 | 24 | 5.0 | 12.0 | 0.00 | 0.00 | 0.00 | 41 | 1018.5 |
| 20260502002942 | 54 | 19 | 4.0 | 12.0 | 0.00 | 0.00 | 0.00 | 40 | 1018.5 |
| 20260502002443 | 54 | 344 | 7.0 | 12.0 | 0.00 | 0.00 | 0.00 | 39 | 1018.5 |
| 20260502001942 | 54 | 309 | 3.0 | 12.0 | 0.00 | 0.00 | 0.00 | 40 | 1018.4 |
| 20260502001442 | 55 | 324 | 5.0 | 14.0 | 0.00 | 0.00 | 0.00 | 38 | 1018.4 |
| 20260502000941 | 55 | 341 | 6.0 | 16.0 | 0.00 | 0.00 | 0.00 | 38 | 1018.3 |
| 20260502000441 | 56 | 310 | 6.0 | 16.0 | 0.00 | 0.00 | 0.00 | 38 | 1018.5 |
| 20260501235942 | 56 | 9 | 9.0 | 16.0 | 0.00 | 0.00 | 0.00 | 37 | 1018.4 |
| 20260501234940 | 56 | 316 | 4.0 | 13.0 | 0.00 | 0.00 | 0.00 | 38 | 1018.5 |